Time;durP1;ratioP1;P1;durP2;ratioP2;P2;SDS_P1;SDS_P2;PMS_P1;PMS_P2;Temp;Humidity;BMP_temperature;BMP_pressure;BME280_temperature;BME280_humidity;BME280_pressure;Samples;Min_cycle;Max_cycle;Signal;HPM_P1;HPM_P2
2022/11/10 00:00:02;;;;;;;368.60;159.57;;;;;;;;;;4946755;28;20209;-54
2022/11/10 00:02:28;;;;;;;396.80;175.70;;;;;;;;;;4955157;28;20277;-54
2022/11/10 00:04:54;;;;;;;412.67;178.93;;;;;;;;;;4956033;28;20659;-54
2022/11/10 00:07:24;;;;;;;454.53;196.77;;;;;;;;;;4943312;28;20997;-54
2022/11/10 00:09:51;;;;;;;423.73;184.87;;;;;;;;;;4948556;28;20689;-53
2022/11/10 00:12:17;;;;;;;395.50;168.37;;;;;;;;;;4966109;28;20842;-54
2022/11/10 00:17:28;;;;;;;382.97;169.37;;;;;;;;;;4955822;28;20270;-54
2022/11/10 00:19:54;;;;;;;408.43;178.00;;;;;;;;;;4958511;28;20214;-54
2022/11/10 00:22:20;;;;;;;404.43;175.53;;;;;;;;;;4955336;28;20253;-54
2022/11/10 00:24:46;;;;;;;416.63;180.47;;;;;;;;;;4952224;28;20252;-54
2022/11/10 00:27:13;;;;;;;397.90;171.70;;;;;;;;;;4950069;28;20229;-54
2022/11/10 00:29:39;;;;;;;420.67;179.63;;;;;;;;;;4953723;28;20214;-54
2022/11/10 00:32:05;;;;;;;447.97;190.63;;;;;;;;;;4949065;28;20222;-54
2022/11/10 00:34:31;;;;;;;373.07;160.87;;;;;;;;;;4950714;28;20504;-54
2022/11/10 00:36:57;;;;;;;388.90;169.63;;;;;;;;;;4957854;28;20551;-54
2022/11/10 00:39:23;;;;;;;373.43;164.30;;;;;;;;;;4953400;28;20404;-54
2022/11/10 00:41:49;;;;;;;394.20;171.20;;;;;;;;;;4939025;28;20577;-53
2022/11/10 00:44:15;;;;;;;399.10;172.20;;;;;;;;;;4949844;28;20685;-54
2022/11/10 00:46:41;;;;;;;434.40;189.43;;;;;;;;;;4943193;28;20221;-54
2022/11/10 00:49:06;;;;;;;364.27;156.47;;;;;;;;;;4950521;28;20252;-54
2022/11/10 00:51:32;;;;;;;434.53;192.07;;;;;;;;;;4948432;28;21433;-54
2022/11/10 00:53:58;;;;;;;439.33;192.53;;;;;;;;;;4944329;28;20673;-54
2022/11/10 00:56:24;;;;;;;392.43;171.83;;;;;;;;;;4944316;28;20933;-53
2022/11/10 00:58:50;;;;;;;405.37;177.77;;;;;;;;;;4953720;28;20237;-54
2022/11/10 01:01:17;;;;;;;429.77;183.77;;;;;;;;;;4949694;28;20292;-54
2022/11/10 01:03:43;;;;;;;370.03;162.63;;;;;;;;;;4956602;28;20668;-54
2022/11/10 01:06:13;;;;;;;379.83;165.53;;;;;;;;;;4958003;28;20309;-54
2022/11/10 01:08:39;;;;;;;448.87;194.10;;;;;;;;;;4947977;28;20229;-54
2022/11/10 01:11:25;;;;;;;459.77;199.40;;;;;;;;;;4944023;28;21633;-54
2022/11/10 01:13:52;;;;;;;370.60;164.07;;;;;;;;;;4952147;28;20213;-54
2022/11/10 01:16:23;;;;;;;420.00;180.80;;;;;;;;;;4950762;28;20214;-53
2022/11/10 01:18:49;;;;;;;406.77;176.70;;;;;;;;;;4955131;28;20241;-54
2022/11/10 01:21:15;;;;;;;415.43;179.17;;;;;;;;;;4955647;28;20240;-53
2022/11/10 01:23:41;;;;;;;424.20;183.60;;;;;;;;;;4941143;28;20233;-53
2022/11/10 01:26:07;;;;;;;459.77;196.03;;;;;;;;;;4938649;28;20367;-53
2022/11/10 01:28:34;;;;;;;359.43;155.10;;;;;;;;;;4947092;28;20300;-53
2022/11/10 01:31:01;;;;;;;414.10;179.10;;;;;;;;;;4947314;28;20360;-53
2022/11/10 01:33:27;;;;;;;407.73;176.90;;;;;;;;;;4935463;28;20186;-53
2022/11/10 01:35:55;;;;;;;441.50;187.40;;;;;;;;;;4946804;28;20229;-53
2022/11/10 01:38:21;;;;;;;414.63;181.70;;;;;;;;;;4945095;28;20245;-53
2022/11/10 01:40:47;;;;;;;377.83;164.77;;;;;;;;;;4947507;28;20221;-53
2022/11/10 01:43:14;;;;;;;399.63;171.10;;;;;;;;;;4945545;28;20690;-54
2022/11/10 01:45:50;;;;;;;464.87;199.53;;;;;;;;;;4941014;28;20217;-53
2022/11/10 01:48:29;;;;;;;430.10;183.53;;;;;;;;;;4942536;28;20220;-53
2022/11/10 01:50:57;;;;;;;410.13;174.57;;;;;;;;;;4942606;28;20229;-54
2022/11/10 01:53:24;;;;;;;392.30;171.37;;;;;;;;;;4951542;28;20674;-53
2022/11/10 01:55:51;;;;;;;430.77;185.33;;;;;;;;;;4940953;28;20324;-54
2022/11/10 01:58:20;;;;;;;435.70;184.33;;;;;;;;;;4945606;28;20837;-54
2022/11/10 02:00:46;;;;;;;366.87;160.13;;;;;;;;;;4953838;28;20253;-54
2022/11/10 02:03:15;;;;;;;434.93;187.80;;;;;;;;;;4947956;28;20236;-53
2022/11/10 02:05:42;;;;;;;389.53;169.33;;;;;;;;;;4937655;28;20218;-54
2022/11/10 02:08:08;;;;;;;424.37;181.47;;;;;;;;;;4945082;28;20209;-54
2022/11/10 02:10:34;;;;;;;403.50;175.00;;;;;;;;;;4941067;28;20217;-54
2022/11/10 02:13:00;;;;;;;413.13;179.20;;;;;;;;;;4943369;28;20221;-54
2022/11/10 02:15:26;;;;;;;393.07;171.53;;;;;;;;;;4947672;28;20221;-53
2022/11/10 02:17:52;;;;;;;435.20;189.57;;;;;;;;;;4933493;28;20675;-54
2022/11/10 02:20:19;;;;;;;398.07;171.03;;;;;;;;;;4945797;28;20652;-54
2022/11/10 02:22:45;;;;;;;432.83;186.80;;;;;;;;;;4943781;28;20319;-54
2022/11/10 02:25:13;;;;;;;424.50;181.40;;;;;;;;;;4945943;28;20332;-54
2022/11/10 02:27:39;;;;;;;347.27;153.37;;;;;;;;;;4931759;28;20205;-54
2022/11/10 02:30:05;;;;;;;355.47;155.33;;;;;;;;;;4958841;28;20247;-54
2022/11/10 02:32:31;;;;;;;373.93;166.33;;;;;;;;;;4949998;28;20508;-54
2022/11/10 02:34:57;;;;;;;418.77;182.73;;;;;;;;;;4951311;28;22604;-54
2022/11/10 02:37:23;;;;;;;359.20;159.40;;;;;;;;;;4949597;28;20313;-54
2022/11/10 02:39:49;;;;;;;406.53;174.73;;;;;;;;;;4948194;28;20222;-54
2022/11/10 02:42:15;;;;;;;391.97;170.27;;;;;;;;;;4950869;28;20197;-54
2022/11/10 02:44:41;;;;;;;440.60;190.60;;;;;;;;;;4956608;28;20272;-54
2022/11/10 02:47:07;;;;;;;407.90;175.10;;;;;;;;;;4952281;28;20229;-54
2022/11/10 02:49:32;;;;;;;391.93;172.83;;;;;;;;;;4946633;28;20821;-54
2022/11/10 02:51:58;;;;;;;415.07;176.50;;;;;;;;;;4946759;28;20246;-53
2022/11/10 02:54:24;;;;;;;379.20;167.30;;;;;;;;;;4948573;28;20244;-53
2022/11/10 02:56:50;;;;;;;469.97;201.30;;;;;;;;;;4942237;28;20225;-54
2022/11/10 02:59:16;;;;;;;390.50;171.33;;;;;;;;;;4951966;28;20222;-53
2022/11/10 03:01:42;;;;;;;432.93;184.67;;;;;;;;;;4948866;28;20309;-54
2022/11/10 03:04:08;;;;;;;367.23;161.63;;;;;;;;;;4948353;28;21210;-54
2022/11/10 03:06:34;;;;;;;340.17;148.93;;;;;;;;;;4969633;28;20240;-54
2022/11/10 03:09:00;;;;;;;420.47;180.30;;;;;;;;;;4971534;28;20690;-53
2022/11/10 03:11:26;;;;;;;408.40;175.90;;;;;;;;;;4947164;28;20304;-54
2022/11/10 03:13:52;;;;;;;357.63;157.90;;;;;;;;;;4953728;28;20213;-54
2022/11/10 03:16:18;;;;;;;465.90;199.97;;;;;;;;;;4952727;28;20214;-54
2022/11/10 03:18:44;;;;;;;411.03;176.23;;;;;;;;;;4946913;28;20185;-54
2022/11/10 03:21:10;;;;;;;420.33;181.67;;;;;;;;;;4950761;28;20244;-54
2022/11/10 03:23:36;;;;;;;386.47;169.00;;;;;;;;;;4947840;28;20727;-54
2022/11/10 03:26:06;;;;;;;428.43;184.17;;;;;;;;;;4947576;28;20315;-53
2022/11/10 03:28:32;;;;;;;449.80;192.07;;;;;;;;;;4939015;28;20671;-53
2022/11/10 03:30:58;;;;;;;482.63;208.40;;;;;;;;;;4952492;28;20273;-53
2022/11/10 03:33:24;;;;;;;372.47;164.90;;;;;;;;;;4959437;28;20202;-54
2022/11/10 03:35:50;;;;;;;361.90;156.63;;;;;;;;;;4967188;28;20748;-54
2022/11/10 03:38:16;;;;;;;365.73;159.10;;;;;;;;;;4960683;28;20698;-54
2022/11/10 03:40:41;;;;;;;345.43;151.50;;;;;;;;;;4961181;28;20210;-54
2022/11/10 03:43:08;;;;;;;429.97;187.00;;;;;;;;;;4954098;28;20234;-54
2022/11/10 03:45:34;;;;;;;367.17;161.97;;;;;;;;;;4959780;28;20272;-54
2022/11/10 03:47:59;;;;;;;322.70;143.23;;;;;;;;;;4954444;28;20192;-54
2022/11/10 03:50:25;;;;;;;387.30;168.40;;;;;;;;;;4965183;28;20209;-53
2022/11/10 03:52:51;;;;;;;372.43;164.17;;;;;;;;;;4951997;28;20210;-54
2022/11/10 03:55:18;;;;;;;344.00;150.50;;;;;;;;;;4948690;28;20209;-53
2022/11/10 03:57:44;;;;;;;376.30;166.63;;;;;;;;;;4952954;28;20186;-54
2022/11/10 04:00:11;;;;;;;423.63;181.77;;;;;;;;;;4948239;28;20179;-53
2022/11/10 04:02:37;;;;;;;366.50;161.37;;;;;;;;;;4952851;28;20218;-54
2022/11/10 04:10:35;;;;;;;360.60;158.20;;;;;;;;;;4957030;28;20620;-54
2022/11/10 04:15:46;;;;;;;349.03;154.67;;;;;;;;;;4976796;28;20260;-54
2022/11/10 04:18:25;;;;;;;325.40;144.33;;;;;;;;;;4965128;28;20618;-53
2022/11/10 04:20:51;;;;;;;406.63;174.03;;;;;;;;;;4936894;28;20320;-53
2022/11/10 04:23:26;;;;;;;394.27;171.07;;;;;;;;;;4946342;28;20982;-54
2022/11/10 04:28:45;;;;;;;388.33;168.73;;;;;;;;;;4942014;28;20453;-54
2022/11/10 04:31:11;;;;;;;437.67;191.60;;;;;;;;;;4953386;28;21663;-53
2022/11/10 04:33:38;;;;;;;356.13;161.53;;;;;;;;;;4947595;28;20655;-54
2022/11/10 04:36:04;;;;;;;363.10;163.90;;;;;;;;;;4948472;28;20229;-54
2022/11/10 04:38:30;;;;;;;381.33;172.50;;;;;;;;;;4958467;28;21201;-54
2022/11/10 04:40:56;;;;;;;358.83;159.23;;;;;;;;;;4956061;28;20657;-54
2022/11/10 04:43:22;;;;;;;416.77;180.57;;;;;;;;;;4944757;28;20590;-54
2022/11/10 04:45:48;;;;;;;372.10;167.07;;;;;;;;;;4941781;28;20689;-54
2022/11/10 04:48:14;;;;;;;416.93;182.33;;;;;;;;;;4949159;28;20275;-54
2022/11/10 04:50:39;;;;;;;456.70;200.43;;;;;;;;;;4942660;28;20240;-53
2022/11/10 04:53:05;;;;;;;364.23;163.73;;;;;;;;;;4947724;28;20229;-54
2022/11/10 04:55:31;;;;;;;400.63;174.70;;;;;;;;;;4947676;28;20671;-53
2022/11/10 04:57:57;;;;;;;409.23;179.83;;;;;;;;;;4949706;28;20229;-54
2022/11/10 05:00:23;;;;;;;452.07;196.47;;;;;;;;;;4954595;28;20579;-53
2022/11/10 05:02:49;;;;;;;419.43;177.70;;;;;;;;;;4953551;28;20229;-54
2022/11/10 05:05:15;;;;;;;383.53;170.80;;;;;;;;;;4944791;28;20224;-53
2022/11/10 05:07:41;;;;;;;371.23;164.60;;;;;;;;;;4955267;28;20951;-53
2022/11/10 05:10:07;;;;;;;463.47;202.33;;;;;;;;;;4951435;28;20253;-53
2022/11/10 05:12:33;;;;;;;400.13;178.60;;;;;;;;;;4956358;28;20614;-55
2022/11/10 05:14:59;;;;;;;458.23;198.73;;;;;;;;;;4951705;28;20344;-54
2022/11/10 05:17:25;;;;;;;427.03;187.00;;;;;;;;;;4941032;28;20316;-53
2022/11/10 05:19:51;;;;;;;354.23;158.37;;;;;;;;;;4954692;28;20263;-53
2022/11/10 05:22:17;;;;;;;295.93;134.77;;;;;;;;;;4967283;28;20233;-53
2022/11/10 05:24:43;;;;;;;399.97;176.80;;;;;;;;;;4950866;28;20712;-53
2022/11/10 05:27:09;;;;;;;355.60;158.73;;;;;;;;;;4951571;28;20806;-53
2022/11/10 05:29:35;;;;;;;348.80;157.07;;;;;;;;;;4965723;28;20223;-53
2022/11/10 05:32:00;;;;;;;349.03;158.63;;;;;;;;;;4972644;28;20223;-53
2022/11/10 05:34:26;;;;;;;365.23;161.37;;;;;;;;;;4975650;28;20625;-53
2022/11/10 05:36:52;;;;;;;314.87;144.30;;;;;;;;;;4972015;28;20212;-53
2022/11/10 05:39:18;;;;;;;325.53;145.03;;;;;;;;;;4982790;28;20195;-53
2022/11/10 05:41:44;;;;;;;332.07;151.43;;;;;;;;;;4977928;28;20221;-53
2022/11/10 05:44:10;;;;;;;386.20;172.17;;;;;;;;;;4976573;28;20697;-53
2022/11/10 05:46:36;;;;;;;357.00;162.43;;;;;;;;;;4966032;28;20252;-53
2022/11/10 05:49:02;;;;;;;290.67;136.97;;;;;;;;;;4962340;28;20316;-53
2022/11/10 05:51:28;;;;;;;389.03;176.63;;;;;;;;;;4965459;28;20187;-53
2022/11/10 05:53:54;;;;;;;393.27;177.83;;;;;;;;;;4962352;28;20185;-53
2022/11/10 05:56:20;;;;;;;325.57;150.50;;;;;;;;;;4989895;28;20220;-53
2022/11/10 05:58:46;;;;;;;358.93;160.10;;;;;;;;;;4967772;28;20631;-53
2022/11/10 06:01:11;;;;;;;366.57;165.27;;;;;;;;;;4968190;28;20200;-53
2022/11/10 06:03:37;;;;;;;351.20;157.37;;;;;;;;;;4984494;28;20574;-53
2022/11/10 06:06:04;;;;;;;398.70;170.43;;;;;;;;;;4954373;28;20543;-53
2022/11/10 06:08:29;;;;;;;343.83;147.30;;;;;;;;;;4962504;28;20224;-53
2022/11/10 06:10:55;;;;;;;397.60;165.73;;;;;;;;;;4975701;28;20218;-53
2022/11/10 06:13:21;;;;;;;303.83;132.60;;;;;;;;;;4988427;28;20224;-53
2022/11/10 06:15:47;;;;;;;295.97;137.33;;;;;;;;;;4976996;28;20304;-53
2022/11/10 06:18:13;;;;;;;363.67;163.50;;;;;;;;;;4959332;28;20185;-53
2022/11/10 06:20:39;;;;;;;419.60;184.87;;;;;;;;;;4953267;28;20224;-53
2022/11/10 06:23:06;;;;;;;385.17;167.17;;;;;;;;;;4955252;28;20638;-53
2022/11/10 06:25:34;;;;;;;376.37;168.13;;;;;;;;;;4965813;28;20213;-53
2022/11/10 06:28:00;;;;;;;645.27;245.70;;;;;;;;;;4940373;28;20222;-53
2022/11/10 06:30:27;;;;;;;384.47;168.90;;;;;;;;;;4948927;28;20980;-54
2022/11/10 06:32:53;;;;;;;442.73;194.00;;;;;;;;;;4924943;28;20190;-54
2022/11/10 06:35:19;;;;;;;402.50;176.10;;;;;;;;;;4958623;28;20646;-53
2022/11/10 06:37:45;;;;;;;374.50;164.43;;;;;;;;;;4958158;28;21592;-52
2022/11/10 06:40:15;;;;;;;540.20;202.27;;;;;;;;;;4949727;28;20226;-52
2022/11/10 06:42:41;;;;;;;398.33;165.23;;;;;;;;;;4958547;28;20296;-53
2022/11/10 06:45:07;;;;;;;434.73;181.80;;;;;;;;;;4963112;28;21218;-53
2022/11/10 06:47:33;;;;;;;777.87;297.73;;;;;;;;;;4913137;28;20224;-53
2022/11/10 06:49:59;;;;;;;355.13;152.63;;;;;;;;;;4927203;28;23288;-54
2022/11/10 06:52:25;;;;;;;368.83;158.63;;;;;;;;;;4953885;28;20746;-53
2022/11/10 06:54:51;;;;;;;337.43;145.90;;;;;;;;;;4968646;28;20232;-53
2022/11/10 06:57:17;;;;;;;332.00;144.57;;;;;;;;;;4983710;28;20214;-54
2022/11/10 06:59:43;;;;;;;330.90;150.57;;;;;;;;;;4970510;28;20693;-53
2022/11/10 07:02:12;;;;;;;462.17;187.00;;;;;;;;;;4960801;28;20279;-53
2022/11/10 07:04:38;;;;;;;447.10;180.37;;;;;;;;;;4939883;28;20724;-52
2022/11/10 07:07:04;;;;;;;361.17;163.80;;;;;;;;;;4964075;28;20213;-53
2022/11/10 07:09:30;;;;;;;376.30;168.63;;;;;;;;;;4987092;28;20519;-55
2022/11/10 07:11:56;;;;;;;333.83;144.40;;;;;;;;;;4988984;28;20236;-55
2022/11/10 07:14:22;;;;;;;363.83;158.20;;;;;;;;;;4981398;28;20244;-55
2022/11/10 07:16:48;;;;;;;316.93;142.37;;;;;;;;;;4990181;28;20255;-52
2022/11/10 07:19:14;;;;;;;375.60;160.70;;;;;;;;;;4973917;28;20677;-52
2022/11/10 07:21:41;;;;;;;311.47;140.57;;;;;;;;;;4983126;28;20286;-52
2022/11/10 07:24:07;;;;;;;425.17;178.33;;;;;;;;;;4986604;28;20200;-52
2022/11/10 07:26:33;;;;;;;295.07;139.10;;;;;;;;;;4985063;28;20463;-52
2022/11/10 07:28:59;;;;;;;373.53;174.80;;;;;;;;;;4974875;28;20205;-52
2022/11/10 07:31:25;;;;;;;362.63;164.33;;;;;;;;;;4974699;28;20225;-52
2022/11/10 07:33:51;;;;;;;306.07;143.03;;;;;;;;;;4986747;28;20221;-52
2022/11/10 07:36:16;;;;;;;355.97;164.00;;;;;;;;;;4987359;28;20211;-52
2022/11/10 07:38:42;;;;;;;408.10;184.97;;;;;;;;;;4985371;28;20283;-51
2022/11/10 07:41:08;;;;;;;442.53;197.47;;;;;;;;;;4949407;28;20242;-51
2022/11/10 07:43:34;;;;;;;341.50;154.80;;;;;;;;;;4963424;28;20229;-52
2022/11/10 07:46:00;;;;;;;457.67;208.23;;;;;;;;;;4961239;28;20267;-52
2022/11/10 07:48:26;;;;;;;369.80;165.63;;;;;;;;;;4977643;28;20197;-52
2022/11/10 07:50:52;;;;;;;304.33;140.17;;;;;;;;;;4987215;28;20185;-52
2022/11/10 07:53:19;;;;;;;313.63;142.73;;;;;;;;;;4999172;28;20232;-52
2022/11/10 07:55:45;;;;;;;326.93;149.07;;;;;;;;;;4989652;28;20221;-52
2022/11/10 07:58:15;;;;;;;335.40;152.83;;;;;;;;;;4968886;28;20324;-52
2022/11/10 08:00:42;;;;;;;298.37;142.10;;;;;;;;;;4960043;28;20185;-52
2022/11/10 08:03:11;;;;;;;363.63;162.60;;;;;;;;;;4965922;28;20855;-52
2022/11/10 08:05:37;;;;;;;275.33;131.30;;;;;;;;;;4989297;28;20232;-52
2022/11/10 08:08:03;;;;;;;331.10;152.37;;;;;;;;;;4981781;28;20205;-52
2022/11/10 08:10:29;;;;;;;363.23;163.20;;;;;;;;;;4980389;28;20504;-52
2022/11/10 08:12:56;;;;;;;341.40;152.97;;;;;;;;;;4976705;28;20224;-52
2022/11/10 08:15:23;;;;;;;354.13;160.40;;;;;;;;;;4981839;28;20247;-52
2022/11/10 08:17:49;;;;;;;349.97;158.67;;;;;;;;;;4976640;28;20213;-52
2022/11/10 08:20:15;;;;;;;340.53;154.87;;;;;;;;;;4986373;28;20219;-52
2022/11/10 08:22:41;;;;;;;341.13;158.33;;;;;;;;;;4974283;28;20279;-52
2022/11/10 08:25:07;;;;;;;407.40;183.07;;;;;;;;;;4975592;28;20225;-52
2022/11/10 08:27:33;;;;;;;307.23;143.67;;;;;;;;;;4980323;28;20209;-52
2022/11/10 08:29:59;;;;;;;338.07;152.30;;;;;;;;;;4985210;28;20288;-52
2022/11/10 08:32:25;;;;;;;393.03;177.17;;;;;;;;;;4979818;28;20213;-53
2022/11/10 08:34:51;;;;;;;361.53;162.60;;;;;;;;;;4979298;28;20225;-53
2022/11/10 08:37:17;;;;;;;363.33;161.77;;;;;;;;;;4972549;28;20229;-53
2022/11/10 08:39:43;;;;;;;333.67;153.43;;;;;;;;;;4985494;28;20228;-53
2022/11/10 08:42:09;;;;;;;485.53;217.67;;;;;;;;;;4964552;28;20196;-52
2022/11/10 08:44:35;;;;;;;331.43;151.00;;;;;;;;;;4973770;28;20458;-52
2022/11/10 08:47:01;;;;;;;282.17;133.17;;;;;;;;;;4967844;28;20213;-53
2022/11/10 08:49:27;;;;;;;331.87;148.23;;;;;;;;;;4970437;28;20367;-53
2022/11/10 08:51:52;;;;;;;385.30;176.00;;;;;;;;;;4982244;28;20256;-53
2022/11/10 08:54:18;;;;;;;322.70;148.40;;;;;;;;;;4974758;28;20189;-52
2022/11/10 08:56:44;;;;;;;320.60;148.03;;;;;;;;;;4971135;28;20301;-53
2022/11/10 08:59:10;;;;;;;330.17;150.87;;;;;;;;;;4977647;28;20296;-53
2022/11/10 09:01:36;;;;;;;338.67;154.33;;;;;;;;;;4969372;28;20237;-53
2022/11/10 09:04:02;;;;;;;372.53;165.50;;;;;;;;;;4974953;28;20232;-52
2022/11/10 09:06:28;;;;;;;331.93;150.63;;;;;;;;;;4974391;28;20224;-52
2022/11/10 09:08:54;;;;;;;316.17;147.00;;;;;;;;;;4972706;28;20558;-53
2022/11/10 09:11:20;;;;;;;372.50;172.23;;;;;;;;;;4976121;28;20215;-53
2022/11/10 09:13:46;;;;;;;326.70;152.30;;;;;;;;;;4976712;28;20204;-53
2022/11/10 09:16:12;;;;;;;359.87;165.67;;;;;;;;;;4973808;28;20240;-53
2022/11/10 09:18:38;;;;;;;327.27;149.70;;;;;;;;;;4976936;28;20645;-53
2022/11/10 09:21:10;;;;;;;332.27;146.70;;;;;;;;;;4955392;28;20405;-53
2022/11/10 09:23:36;;;;;;;434.03;198.30;;;;;;;;;;4947442;28;20776;-53
2022/11/10 09:26:06;;;;;;;477.40;214.00;;;;;;;;;;4938152;28;21511;-53
2022/11/10 09:28:31;;;;;;;362.47;164.57;;;;;;;;;;4959361;28;20748;-53
2022/11/10 09:30:57;;;;;;;386.83;171.83;;;;;;;;;;4951750;28;20222;-53
2022/11/10 09:33:23;;;;;;;429.07;194.73;;;;;;;;;;4952339;28;20193;-52
2022/11/10 09:35:49;;;;;;;377.70;170.20;;;;;;;;;;4960272;28;21703;-52
2022/11/10 09:38:15;;;;;;;394.90;176.97;;;;;;;;;;4946574;28;20687;-52
2022/11/10 09:40:57;;;;;;;464.00;207.93;;;;;;;;;;4944871;28;20396;-53
2022/11/10 09:43:27;;;;;;;367.53;160.83;;;;;;;;;;4951006;28;20722;-53
2022/11/10 09:45:54;;;;;;;326.23;150.50;;;;;;;;;;4967100;28;20288;-53
2022/11/10 09:48:35;;;;;;;456.10;205.90;;;;;;;;;;4958986;28;21369;-53
2022/11/10 09:51:03;;;;;;;348.93;155.33;;;;;;;;;;4968915;28;20217;-53
2022/11/10 09:53:34;;;;;;;426.73;194.37;;;;;;;;;;4975723;28;20227;-52
2022/11/10 09:56:02;;;;;;;399.23;179.83;;;;;;;;;;4971260;28;21626;-53
2022/11/10 09:58:38;;;;;;;373.43;168.33;;;;;;;;;;4978756;28;20978;-53
2022/11/10 10:01:17;;;;;;;341.90;155.57;;;;;;;;;;4960179;28;20392;-53
2022/11/10 10:03:59;;;;;;;344.70;158.53;;;;;;;;;;4979701;28;20296;-59
2022/11/10 10:06:26;;;;;;;420.83;190.77;;;;;;;;;;4944835;28;20225;-52
2022/11/10 10:08:57;;;;;;;470.87;214.67;;;;;;;;;;4944267;28;20555;-52
2022/11/10 10:11:53;;;;;;;378.00;170.27;;;;;;;;;;4957776;28;20901;-53
2022/11/10 10:14:31;;;;;;;425.03;191.57;;;;;;;;;;4932853;28;20227;-53
2022/11/10 10:17:03;;;;;;;439.27;196.77;;;;;;;;;;4945451;28;20227;-53
2022/11/10 10:19:37;;;;;;;414.87;190.43;;;;;;;;;;4950153;28;20233;-53
2022/11/10 10:22:19;;;;;;;382.50;173.13;;;;;;;;;;4953316;28;20249;-53
2022/11/10 10:24:45;;;;;;;360.00;167.47;;;;;;;;;;4960114;28;20717;-53
2022/11/10 10:27:15;;;;;;;431.60;194.07;;;;;;;;;;4952228;28;21377;-53
2022/11/10 10:32:19;;;;;;;372.73;167.93;;;;;;;;;;5015698;28;20226;-52
2022/11/10 10:34:46;;;;;;;370.97;166.47;;;;;;;;;;5027083;28;20211;-52
2022/11/10 10:37:38;;;;;;;428.73;188.90;;;;;;;;;;5009506;28;20716;-52
2022/11/10 10:40:04;;;;;;;478.90;217.10;;;;;;;;;;5019412;28;20212;-52
2022/11/10 10:42:32;;;;;;;516.20;231.87;;;;;;;;;;4998030;28;20195;-52
2022/11/10 10:45:16;;;;;;;390.70;179.77;;;;;;;;;;4993914;28;20443;-52
2022/11/10 10:47:42;;;;;;;351.80;160.53;;;;;;;;;;5000940;28;20592;-52
2022/11/10 10:50:15;;;;;;;387.90;177.73;;;;;;;;;;5005135;28;20701;-52
2022/11/10 10:52:41;;;;;;;470.57;208.80;;;;;;;;;;4996403;28;20487;-52
2022/11/10 10:55:08;;;;;;;448.23;194.43;;;;;;;;;;4985626;28;22703;-52
2022/11/10 10:57:34;;;;;;;435.43;192.30;;;;;;;;;;4986141;28;20254;-52
2022/11/10 11:00:18;;;;;;;418.10;185.87;;;;;;;;;;4981600;28;20576;-52
2022/11/10 11:03:00;;;;;;;449.27;199.03;;;;;;;;;;4995216;28;20255;-52
2022/11/10 11:05:26;;;;;;;356.17;164.93;;;;;;;;;;4993553;28;20208;-52
2022/11/10 11:07:56;;;;;;;397.57;177.73;;;;;;;;;;4996671;28;20286;-53
2022/11/10 11:10:23;;;;;;;548.00;217.37;;;;;;;;;;4995062;28;20345;-52
2022/11/10 11:12:49;;;;;;;391.80;173.80;;;;;;;;;;4986670;28;20220;-51
2022/11/10 11:15:19;;;;;;;575.30;225.23;;;;;;;;;;4978145;28;21832;-52
2022/11/10 11:17:55;;;;;;;513.90;206.20;;;;;;;;;;4979400;28;20222;-52
2022/11/10 11:20:26;;;;;;;536.83;210.77;;;;;;;;;;4995258;28;20220;-52
2022/11/10 11:22:56;;;;;;;506.93;226.63;;;;;;;;;;4992916;28;20251;-52
2022/11/10 11:25:27;;;;;;;434.07;193.70;;;;;;;;;;4991251;28;20275;-52
2022/11/10 11:27:56;;;;;;;523.67;234.03;;;;;;;;;;4982838;28;21501;-51
2022/11/10 11:30:23;;;;;;;523.87;233.73;;;;;;;;;;4997537;28;20873;-52
2022/11/10 11:33:05;;;;;;;451.57;211.73;;;;;;;;;;4979000;28;20782;-52
2022/11/10 11:35:34;;;;;;;401.57;188.53;;;;;;;;;;4999668;28;20215;-52
2022/11/10 11:38:31;;;;;;;510.37;235.80;;;;;;;;;;4983467;28;21035;-52
2022/11/10 11:41:15;;;;;;;430.13;198.80;;;;;;;;;;4978083;28;20742;-52
2022/11/10 11:43:59;;;;;;;373.53;170.40;;;;;;;;;;5001137;28;20228;-52
2022/11/10 11:46:39;;;;;;;436.03;202.77;;;;;;;;;;5001448;28;20311;-52
2022/11/10 11:49:22;;;;;;;482.50;216.10;;;;;;;;;;4992889;28;20318;-51
2022/11/10 11:52:00;;;;;;;438.43;204.43;;;;;;;;;;4992802;28;20216;-52
2022/11/10 11:54:35;;;;;;;474.40;223.27;;;;;;;;;;5003596;28;20257;-52
2022/11/10 11:57:10;;;;;;;442.33;206.53;;;;;;;;;;4994073;28;20296;-52
2022/11/10 11:59:51;;;;;;;351.63;166.30;;;;;;;;;;5004375;28;20464;-52
2022/11/10 12:02:33;;;;;;;448.43;208.23;;;;;;;;;;4997043;28;20295;-52
2022/11/10 12:05:21;;;;;;;562.57;264.93;;;;;;;;;;4981817;28;20223;-52
2022/11/10 12:07:54;;;;;;;443.13;206.43;;;;;;;;;;5004372;28;20244;-52
2022/11/10 12:10:26;;;;;;;456.10;209.20;;;;;;;;;;4992702;28;20271;-52
2022/11/10 12:12:55;;;;;;;392.63;180.40;;;;;;;;;;4983928;28;20255;-52
2022/11/10 12:15:24;;;;;;;448.97;209.70;;;;;;;;;;4993233;28;21068;-52
2022/11/10 12:17:50;;;;;;;380.17;183.40;;;;;;;;;;5008598;28;20467;-52
2022/11/10 12:20:16;;;;;;;486.83;231.20;;;;;;;;;;5005299;28;20220;-52
2022/11/10 12:22:42;;;;;;;358.37;166.03;;;;;;;;;;5008720;28;20223;-52
2022/11/10 12:25:20;;;;;;;401.80;190.47;;;;;;;;;;5009866;28;20255;-52
2022/11/10 12:27:52;;;;;;;394.40;185.13;;;;;;;;;;5019428;28;20220;-52
2022/11/10 12:30:18;;;;;;;382.90;179.80;;;;;;;;;;5016781;28;20203;-52
2022/11/10 12:32:47;;;;;;;343.73;154.07;;;;;;;;;;5011442;28;20212;-52
2022/11/10 12:35:17;;;;;;;352.83;160.90;;;;;;;;;;5006397;28;20216;-52
2022/11/10 12:37:52;;;;;;;468.83;210.87;;;;;;;;;;5010794;28;20282;-52
2022/11/10 12:40:25;;;;;;;410.43;185.90;;;;;;;;;;5005474;28;20222;-52
2022/11/10 12:42:58;;;;;;;388.97;179.17;;;;;;;;;;5008690;28;20267;-52
2022/11/10 12:45:27;;;;;;;436.00;202.10;;;;;;;;;;5011254;28;20226;-52
2022/11/10 12:47:54;;;;;;;399.43;186.30;;;;;;;;;;5018525;28;20240;-52
2022/11/10 12:50:37;;;;;;;456.97;216.20;;;;;;;;;;5008399;28;20224;-52
2022/11/10 12:53:11;;;;;;;367.23;177.35;;;;;;;;;;5005047;28;20223;-52
2022/11/10 12:55:44;;;;;;;477.25;231.43;;;;;;;;;;5001427;28;20362;-52
2022/11/10 12:58:11;;;;;;;434.40;210.02;;;;;;;;;;5003889;28;20212;-53
2022/11/10 13:00:41;;;;;;;413.35;206.68;;;;;;;;;;5000783;28;20255;-52
2022/11/10 13:03:13;;;;;;;447.85;215.88;;;;;;;;;;4991317;28;20201;-52
2022/11/10 13:05:44;;;;;;;438.05;216.57;;;;;;;;;;4996343;28;20640;-52
2022/11/10 13:08:16;;;;;;;379.33;195.10;;;;;;;;;;5000273;28;20220;-52
2022/11/10 13:10:53;;;;;;;404.05;206.90;;;;;;;;;;5003454;28;20575;-52
2022/11/10 13:13:19;;;;;;;372.77;185.50;;;;;;;;;;5006606;28;20215;-52
2022/11/10 13:15:46;;;;;;;471.23;229.60;;;;;;;;;;4993082;28;20212;-52
2022/11/10 13:18:22;;;;;;;481.60;226.27;;;;;;;;;;5000357;28;20181;-52
2022/11/10 13:20:49;;;;;;;395.80;191.27;;;;;;;;;;5009725;28;20293;-52
2022/11/10 13:23:20;;;;;;;458.23;223.80;;;;;;;;;;5000453;28;20224;-52
2022/11/10 13:25:51;;;;;;;390.37;193.07;;;;;;;;;;5001644;28;20208;-52
2022/11/10 13:28:37;;;;;;;487.63;228.80;;;;;;;;;;4999462;28;20248;-52
2022/11/10 13:31:23;;;;;;;391.80;189.40;;;;;;;;;;5007672;28;20803;-52
2022/11/10 13:34:08;;;;;;;380.10;179.17;;;;;;;;;;5009071;28;20305;-52
2022/11/10 13:36:41;;;;;;;419.30;193.03;;;;;;;;;;5002603;28;20207;-52
2022/11/10 13:39:21;;;;;;;430.03;190.40;;;;;;;;;;4999142;28;20378;-52
2022/11/10 13:41:48;;;;;;;415.23;190.60;;;;;;;;;;5011332;28;20294;-52
2022/11/10 13:44:32;;;;;;;432.23;200.53;;;;;;;;;;5003160;28;20228;-52
2022/11/10 13:47:07;;;;;;;431.33;199.07;;;;;;;;;;5008637;28;20224;-52
2022/11/10 13:49:46;;;;;;;434.20;197.47;;;;;;;;;;5006181;28;20624;-52
2022/11/10 13:52:15;;;;;;;421.63;191.10;;;;;;;;;;4998339;28;20219;-52
2022/11/10 13:54:40;;;;;;;440.83;204.23;;;;;;;;;;4998288;28;20231;-52
2022/11/10 13:57:06;;;;;;;403.73;183.23;;;;;;;;;;4996110;28;20302;-52
2022/11/10 13:59:43;;;;;;;354.27;161.03;;;;;;;;;;4993965;28;20217;-52
2022/11/10 14:02:36;;;;;;;388.67;179.03;;;;;;;;;;5001840;28;20276;-52
2022/11/10 14:05:05;;;;;;;373.80;169.07;;;;;;;;;;4990096;28;20228;-52
2022/11/10 14:07:40;;;;;;;432.43;196.33;;;;;;;;;;4993350;28;20289;-52
2022/11/10 14:10:14;;;;;;;483.53;207.30;;;;;;;;;;4991409;28;21790;-52
2022/11/10 14:12:52;;;;;;;456.27;207.37;;;;;;;;;;5004952;28;20252;-52
2022/11/10 14:15:37;;;;;;;359.63;165.03;;;;;;;;;;5009628;28;20188;-52